Time;durP1;ratioP1;P1;durP2;ratioP2;P2;SDS_P1;SDS_P2;PMS_P1;PMS_P2;Temp;Humidity;BMP_temperature;BMP_pressure;BME280_temperature;BME280_humidity;BME280_pressure;Samples;Min_cycle;Max_cycle;Signal;HPM_P1;HPM_P2
2021/09/23 00:00:29;;;;;;;5.58;4.03;;;;;;;7.29;84.60;99332.08;1702258;82;20989;-74
2021/09/23 00:05:29;;;;;;;5.42;3.70;;;;;;;7.29;84.58;99340.30;1667813;84;21154;-70
2021/09/23 00:07:59;;;;;;;6.10;4.15;;;;;;;7.30;84.66;99346.03;1704844;82;20998;-71
2021/09/23 00:10:34;;;;;;;6.65;4.17;;;;;;;7.29;84.70;99338.11;1696375;82;21016;-72
2021/09/23 00:13:03;;;;;;;10.72;4.45;;;;;;;7.28;84.72;99340.03;1702445;82;21024;-71
2021/09/23 00:15:29;;;;;;;9.13;4.50;;;;;;;7.28;84.71;99340.61;1699829;82;21520;-71
2021/09/23 00:17:58;;;;;;;6.25;3.33;;;;;;;7.28;84.64;99342.77;1698389;82;21096;-78
2021/09/23 00:20:32;;;;;;;6.33;3.37;;;;;;;7.25;84.58;99338.48;1695886;82;21068;-72
2021/09/23 00:23:01;;;;;;;10.05;3.98;;;;;;;7.25;84.74;99340.64;1709064;82;21085;-72
2021/09/23 00:25:29;;;;;;;6.15;3.87;;;;;;;7.28;84.94;99341.40;1703353;82;21033;-72
2021/09/23 00:27:58;;;;;;;5.87;4.10;;;;;;;7.33;85.05;99339.69;1686434;82;20983;-70
2021/09/23 00:30:29;;;;;;;4.55;3.33;;;;;;;7.33;84.90;99343.25;1703775;82;21040;-69
2021/09/23 00:32:59;;;;;;;8.43;4.55;;;;;;;7.34;84.89;99338.02;1705683;83;21072;-73
2021/09/23 00:35:28;;;;;;;10.82;4.17;;;;;;;7.36;84.90;99340.45;1692254;82;21449;-73
2021/09/23 00:37:58;;;;;;;5.80;4.30;;;;;;;7.37;84.82;99333.88;1694463;82;21017;-74
2021/09/23 00:40:27;;;;;;;7.50;3.75;;;;;;;7.37;84.77;99332.50;1702279;82;21027;-71
2021/09/23 00:42:56;;;;;;;11.30;4.25;;;;;;;7.37;84.74;99329.76;1707067;82;21772;-71
2021/09/23 00:45:24;;;;;;;6.92;4.03;;;;;;;7.38;84.77;99334.11;1681669;83;21500;-73
2021/09/23 00:47:54;;;;;;;6.12;3.83;;;;;;;7.38;84.66;99338.23;1698069;82;21066;-77
2021/09/23 00:50:22;;;;;;;7.10;3.60;;;;;;;7.35;84.65;99337.47;1690397;82;21538;-77
2021/09/23 00:52:50;;;;;;;11.15;4.37;;;;;;;7.34;84.75;99331.16;1686608;83;21056;-72
2021/09/23 00:55:18;;;;;;;4.53;3.50;;;;;;;7.35;84.81;99337.47;1697694;83;21607;-75
2021/09/23 00:57:50;;;;;;;5.55;3.67;;;;;;;7.34;84.84;99335.27;1689804;82;21044;-78
2021/09/23 01:00:17;;;;;;;4.55;3.58;;;;;;;7.33;84.60;99334.21;1734888;82;21052;-72
2021/09/23 01:02:49;;;;;;;5.20;3.67;;;;;;;7.27;84.63;99334.30;1687850;82;20997;-70
2021/09/23 01:05:15;;;;;;;7.10;3.42;;;;;;;7.26;84.79;99339.54;1724993;82;21073;-78
2021/09/23 01:07:46;;;;;;;5.45;3.80;;;;;;;7.29;84.93;99338.11;1713403;82;21071;-70
2021/09/23 01:10:19;;;;;;;11.80;3.40;;;;;;;7.28;84.85;99337.28;1693354;82;21060;-78
2021/09/23 01:12:51;;;;;;;6.95;4.37;;;;;;;7.27;84.85;99332.94;1718700;82;21523;-71
2021/09/23 01:15:19;;;;;;;7.92;3.83;;;;;;;7.28;84.89;99337.87;1703760;81;21041;-82
2021/09/23 01:17:53;;;;;;;7.25;3.70;;;;;;;7.28;84.92;99339.23;1718019;82;21535;-81
2021/09/23 01:20:24;;;;;;;5.30;3.85;;;;;;;7.28;84.83;99335.91;1682142;83;22470;-74
2021/09/23 01:22:54;;;;;;;8.68;4.22;;;;;;;7.28;85.02;99335.91;1707457;82;21513;-74
2021/09/23 01:25:24;;;;;;;5.67;3.90;;;;;;;7.31;85.07;99335.88;1709243;82;21102;-77
2021/09/23 01:27:54;;;;;;;7.85;4.95;;;;;;;7.33;85.09;99331.47;1670502;84;21078;-77
2021/09/23 01:30:22;;;;;;;4.83;3.92;;;;;;;7.34;85.07;99331.16;1670256;84;21123;-71
2021/09/23 01:32:51;;;;;;;10.48;4.50;;;;;;;7.36;85.14;99337.16;1699748;82;21075;-76
2021/09/23 01:35:20;;;;;;;6.08;4.60;;;;;;;7.38;85.19;99337.68;1709453;82;20985;-73
2021/09/23 01:37:49;;;;;;;6.12;4.53;;;;;;;7.40;85.07;99334.05;1692579;82;22226;-77
2021/09/23 01:40:21;;;;;;;;;;;;;;;7.40;84.95;99331.89;1717823;82;21549;-73
2021/09/23 01:42:50;;;;;;;7.62;4.42;;;;;;;7.39;84.95;99332.98;1702428;82;20178;-71
2021/09/23 01:45:17;;;;;;;6.58;4.53;;;;;;;7.40;84.96;99334.63;1702074;82;21148;-80
2021/09/23 01:47:49;;;;;;;6.30;4.33;;;;;;;7.40;84.95;99337.37;1737879;82;21039;-73
2021/09/23 01:50:19;;;;;;;7.12;4.40;;;;;;;7.35;84.76;99336.92;1713901;82;21481;-79
2021/09/23 01:52:49;;;;;;;6.35;4.33;;;;;;;7.30;84.81;99339.17;1715291;82;21048;-78
2021/09/23 01:55:19;;;;;;;7.15;4.85;;;;;;;7.29;85.01;99336.19;1709369;82;20994;-74
2021/09/23 01:57:52;;;;;;;6.55;4.45;;;;;;;7.30;85.07;99337.02;1733159;82;21125;-72
2021/09/23 02:00:22;;;;;;;8.53;4.15;;;;;;;7.31;85.04;99338.63;1720112;82;21033;-73
2021/09/23 02:05:31;;;;;;;7.22;3.92;;;;;;;7.29;84.93;99334.82;1699539;82;21478;-71
2021/09/23 02:08:00;;;;;;;5.90;3.90;;;;;;;7.27;85.12;99335.67;1707934;82;21533;-77
2021/09/23 02:10:28;;;;;;;5.70;3.77;;;;;;;7.29;85.27;99337.56;1705896;83;21813;-80
2021/09/23 02:12:57;;;;;;;5.90;4.15;;;;;;;7.30;85.12;99334.27;1700186;82;21040;-78
2021/09/23 02:15:30;;;;;;;6.03;4.05;;;;;;;7.32;85.32;99335.34;1694872;82;21013;-72
2021/09/23 02:17:59;;;;;;;4.17;3.37;;;;;;;7.36;85.26;99330.86;1703649;82;21452;-70
2021/09/23 02:20:28;;;;;;;4.97;3.70;;;;;;;7.34;85.00;99332.53;1724704;82;21061;-77
2021/09/23 02:22:57;;;;;;;7.47;3.92;;;;;;;7.31;84.93;99337.25;1699476;82;21203;-80
2021/09/23 02:25:27;;;;;;;5.22;4.03;;;;;;;7.26;85.05;99335.98;1699744;82;20999;-80
2021/09/23 02:27:57;;;;;;;6.00;4.12;;;;;;;7.26;85.18;99334.61;1734120;81;21040;-72
2021/09/23 02:30:28;;;;;;;6.00;3.52;;;;;;;7.26;85.19;99330.50;1657445;84;21081;-70
2021/09/23 02:32:55;;;;;;;5.83;3.52;;;;;;;7.27;85.32;99332.94;1710139;82;21068;-76
2021/09/23 02:35:25;;;;;;;4.92;3.90;;;;;;;7.28;85.42;99328.27;1658136;84;21132;-71
2021/09/23 02:37:54;;;;;;;7.17;3.80;;;;;;;7.31;85.42;99329.03;1695132;83;21028;-71
2021/09/23 02:40:27;;;;;;;8.30;3.90;;;;;;;7.32;85.36;99325.16;1709118;82;21490;-81
2021/09/23 02:42:59;;;;;;;4.65;3.77;;;;;;;7.32;85.38;99323.80;1692965;83;21073;-79
2021/09/23 02:45:30;;;;;;;5.58;3.77;;;;;;;7.34;85.32;99320.75;1697874;82;21002;-81
2021/09/23 02:48:00;;;;;;;5.30;4.10;;;;;;;7.36;85.32;99318.52;1681646;82;21467;-76
2021/09/23 02:50:27;;;;;;;5.42;3.87;;;;;;;7.36;85.10;99315.78;1692982;83;21023;-70
2021/09/23 02:53:00;;;;;;;4.60;3.67;;;;;;;7.33;85.07;99316.39;1723467;82;21016;-76
2021/09/23 02:55:27;;;;;;;4.87;3.77;;;;;;;7.31;85.00;99313.95;1643728;84;21065;-78
2021/09/23 02:57:55;;;;;;;6.83;4.33;;;;;;;7.28;85.12;99317.31;1729148;82;21003;-80
2021/09/23 03:00:26;;;;;;;6.05;4.72;;;;;;;7.26;85.04;99310.77;1693502;82;21083;-70
2021/09/23 03:02:59;;;;;;;5.37;4.22;;;;;;;7.23;84.98;99314.11;1694045;83;21065;-80
2021/09/23 03:05:25;;;;;;;5.65;4.22;;;;;;;7.20;85.16;99311.95;1701197;82;21066;-71
2021/09/23 03:07:57;;;;;;;5.35;3.83;;;;;;;7.22;85.50;99311.10;1728974;82;21499;-70
2021/09/23 03:10:23;;;;;;;7.15;4.45;;;;;;;7.26;85.48;99318.98;1628651;85;21056;-81
2021/09/23 03:12:52;;;;;;;4.90;3.92;;;;;;;7.27;85.33;99315.66;1663709;83;21130;-70
2021/09/23 03:15:27;;;;;;;5.67;4.08;;;;;;;7.27;85.19;99317.03;1682915;83;21089;-78
2021/09/23 03:17:58;;;;;;;10.82;4.37;;;;;;;7.22;85.10;99317.95;1677020;83;21013;-79
2021/09/23 03:20:29;;;;;;;7.70;4.90;;;;;;;7.21;85.11;99314.14;1669911;83;22099;-80
2021/09/23 03:23:03;;;;;;;5.78;4.22;;;;;;;7.20;85.13;99315.27;1667766;85;21525;-76
2021/09/23 03:25:35;;;;;;;6.75;4.92;;;;;;;7.18;85.09;99314.20;1671233;83;21041;-74
2021/09/23 03:28:06;;;;;;;8.38;5.60;;;;;;;7.18;85.14;99315.58;1682459;83;21068;-78
2021/09/23 03:30:34;;;;;;;6.22;5.08;;;;;;;7.15;85.10;99316.16;1664721;84;21831;-79
2021/09/23 03:33:05;;;;;;;5.37;4.72;;;;;;;7.15;85.22;99328.48;1680450;83;21067;-80
2021/09/23 03:35:36;;;;;;;5.17;4.53;;;;;;;7.15;85.25;99324.38;1671919;83;21021;-76
2021/09/23 03:38:08;;;;;;;6.15;5.10;;;;;;;7.17;85.34;99324.34;1677952;83;21977;-73
2021/09/23 03:40:39;;;;;;;5.87;4.90;;;;;;;7.15;85.11;99321.64;1678787;83;21513;-74
2021/09/23 03:43:09;;;;;;;5.95;4.47;;;;;;;7.13;85.15;99331.53;1677773;83;21595;-76
2021/09/23 03:45:37;;;;;;;9.55;5.47;;;;;;;7.12;85.27;99321.70;1672906;85;21138;-75
2021/09/23 03:48:04;;;;;;;7.50;5.12;;;;;;;7.09;85.04;99325.59;1655922;83;21124;-79
2021/09/23 03:50:33;;;;;;;7.72;4.80;;;;;;;7.06;85.15;99330.55;1659456;83;21243;-73
2021/09/23 03:53:06;;;;;;;6.40;5.08;;;;;;;7.06;85.22;99325.08;1703156;83;21158;-75
2021/09/23 03:55:34;;;;;;;6.58;5.37;;;;;;;7.10;85.42;99325.84;1669369;83;21068;-76
2021/09/23 03:58:04;;;;;;;8.05;6.08;;;;;;;7.09;85.45;99325.05;1677544;83;21041;-79
2021/09/23 04:00:39;;;;;;;6.20;4.97;;;;;;;7.12;85.41;99326.36;1698013;83;21528;-82
2021/09/23 04:03:07;;;;;;;8.18;6.45;;;;;;;7.10;85.33;99329.40;1672697;83;21115;-78
2021/09/23 04:05:34;;;;;;;5.90;5.30;;;;;;;7.10;85.26;99325.84;1654156;83;21067;-80
2021/09/23 04:08:05;;;;;;;6.65;5.42;;;;;;;7.07;85.34;99330.00;1620685;86;21108;-79
2021/09/23 04:10:34;;;;;;;7.83;5.22;;;;;;;7.05;85.43;99333.05;1668492;84;21519;-77
2021/09/23 04:13:02;;;;;;;11.03;6.17;;;;;;;7.05;85.54;99328.94;1673161;83;21496;-79
2021/09/23 04:15:34;;;;;;;7.28;5.90;;;;;;;7.10;85.63;99327.20;1684912;82;21555;-77
2021/09/23 04:18:04;;;;;;;;;;;;;;;7.14;85.67;99320.84;1699791;82;21080;-74
2021/09/23 04:20:33;;;;;;;9.08;5.85;;;;;;;7.18;85.67;99322.42;1713446;82;20197;-78
2021/09/23 04:23:01;;;;;;;6.20;5.30;;;;;;;7.20;85.59;99318.80;1646322;84;21080;-74
2021/09/23 04:25:29;;;;;;;5.03;4.35;;;;;;;7.21;85.56;99323.19;1675839;82;21468;-78
2021/09/23 04:27:56;;;;;;;8.55;5.03;;;;;;;7.21;85.43;99317.71;1720357;82;21553;-81
2021/09/23 04:30:24;;;;;;;6.55;4.83;;;;;;;7.23;85.52;99326.45;1646386;84;21049;-76
2021/09/23 04:32:54;;;;;;;6.80;4.80;;;;;;;7.30;85.66;99322.73;1695753;83;21044;-76
2021/09/23 04:35:24;;;;;;;7.42;4.75;;;;;;;7.36;85.31;99325.38;1675701;84;21086;-71
2021/09/23 04:37:56;;;;;;;8.08;5.22;;;;;;;7.34;84.98;99327.05;1669783;84;21085;-75
2021/09/23 04:40:24;;;;;;;7.25;5.53;;;;;;;7.32;84.89;99332.59;1699988;82;21708;-72
2021/09/23 04:42:54;;;;;;;7.47;5.58;;;;;;;7.28;84.95;99330.44;1711990;82;21072;-73
2021/09/23 04:45:22;;;;;;;6.20;4.90;;;;;;;7.30;85.03;99333.70;1726018;82;21595;-77
2021/09/23 04:47:50;;;;;;;5.78;4.70;;;;;;;7.30;85.06;99329.58;1671560;82;21092;-76
2021/09/23 04:50:23;;;;;;;6.45;4.97;;;;;;;7.32;85.11;99321.63;1708677;81;21009;-78
2021/09/23 04:52:53;;;;;;;6.95;5.30;;;;;;;7.31;84.99;99329.03;1719891;82;21049;-76
2021/09/23 04:55:22;;;;;;;7.15;5.28;;;;;;;7.30;84.90;99328.79;1715549;82;21512;-70
2021/09/23 04:57:55;;;;;;;8.45;5.05;;;;;;;7.30;84.97;99328.79;1705380;82;21095;-69
2021/09/23 05:00:24;;;;;;;6.35;5.28;;;;;;;7.32;84.97;99337.50;1687908;83;21085;-71
2021/09/23 05:02:53;;;;;;;7.00;4.40;;;;;;;7.29;84.81;99333.45;1709806;82;21061;-70
2021/09/23 05:05:29;;;;;;;8.35;4.20;;;;;;;7.29;84.91;99332.63;1717717;82;21065;-73
2021/09/23 05:07:59;;;;;;;5.33;4.15;;;;;;;7.28;85.01;99338.66;1679507;82;21031;-71
2021/09/23 05:10:29;;;;;;;7.25;5.20;;;;;;;7.31;84.93;99337.25;1690485;83;21501;-73
2021/09/23 05:12:55;;;;;;;4.53;4.05;;;;;;;7.32;84.82;99325.75;1723140;82;21016;-77
2021/09/23 05:15:28;;;;;;;5.55;4.53;;;;;;;7.35;84.85;99327.88;1716480;82;21031;-71
2021/09/23 05:17:57;;;;;;;6.03;4.63;;;;;;;7.38;84.75;99325.34;1710224;82;21094;-72
2021/09/23 05:20:25;;;;;;;5.85;4.60;;;;;;;7.40;84.57;99330.52;1710580;82;21003;-73
2021/09/23 05:22:51;;;;;;;5.60;4.67;;;;;;;7.42;84.59;99328.30;1705916;82;21135;-70
2021/09/23 05:25:21;;;;;;;8.30;4.78;;;;;;;7.46;84.57;99329.30;1702575;82;21077;-73
2021/09/23 05:27:52;;;;;;;4.87;4.35;;;;;;;7.48;84.40;99327.07;1708844;82;21139;-71
2021/09/23 05:30:23;;;;;;;6.92;4.10;;;;;;;7.49;84.35;99322.41;1674266;84;21037;-73
2021/09/23 05:32:53;;;;;;;7.85;4.58;;;;;;;7.49;84.32;99330.05;1707900;82;21080;-74
2021/09/23 05:35:21;;;;;;;8.73;4.75;;;;;;;7.51;84.30;99331.12;1719916;82;21514;-74
2021/09/23 05:37:48;;;;;;;6.83;4.83;;;;;;;7.53;84.17;99331.09;1719159;82;21102;-74
2021/09/23 05:40:19;;;;;;;6.95;4.17;;;;;;;7.54;83.93;99331.33;1714716;82;21482;-78
2021/09/23 05:42:45;;;;;;;5.15;4.60;;;;;;;7.53;83.92;99337.94;1716835;82;21110;-76
2021/09/23 05:45:13;;;;;;;5.95;4.20;;;;;;;7.52;83.76;99334.92;1707684;82;21091;-73
2021/09/23 05:47:41;;;;;;;6.97;4.58;;;;;;;7.53;83.84;99335.20;1704550;82;21053;-73
2021/09/23 05:50:13;;;;;;;6.55;4.62;;;;;;;7.55;83.80;99337.63;1708232;82;21065;-70
2021/09/23 05:52:41;;;;;;;7.03;3.85;;;;;;;7.58;83.93;99340.31;1702644;82;21490;-69
2021/09/23 05:55:11;;;;;;;5.10;4.17;;;;;;;7.65;84.08;99347.03;1712015;82;21616;-71
2021/09/23 05:57:39;;;;;;;8.08;5.00;;;;;;;7.69;83.87;99342.30;1674928;85;21024;-72
2021/09/23 06:00:12;;;;;;;6.25;4.80;;;;;;;7.72;83.80;99348.00;1678826;85;21529;-73
2021/09/23 06:02:48;;;;;;;6.67;4.10;;;;;;;7.77;83.64;99345.70;1677344;85;20974;-70
2021/09/23 06:05:17;;;;;;;3.92;3.17;;;;;;;7.77;83.40;99348.45;1657404;85;21041;-70
2021/09/23 06:07:46;;;;;;;6.83;3.87;;;;;;;7.79;83.50;99340.73;1684793;82;21040;-69
2021/09/23 06:10:13;;;;;;;4.92;3.70;;;;;;;7.88;83.64;99343.58;1700191;82;21076;-70
2021/09/23 06:12:41;;;;;;;3.65;2.72;;;;;;;7.93;83.60;99347.58;1719183;82;21029;-78
2021/09/23 06:15:15;;;;;;;3.75;2.70;;;;;;;7.98;83.32;99341.17;1720517;82;21053;-76
2021/09/23 06:17:43;;;;;;;3.12;2.80;;;;;;;8.03;83.34;99345.97;1691168;82;21051;-72
2021/09/23 06:20:14;;;;;;;4.33;3.02;;;;;;;8.10;83.07;99348.88;1721712;82;21381;-71
2021/09/23 06:22:43;;;;;;;6.33;2.77;;;;;;;8.10;82.46;99351.63;1688841;82;21040;-70
2021/09/23 06:25:10;;;;;;;4.25;2.95;;;;;;;8.12;82.62;99350.77;1713737;82;21514;-76
2021/09/23 06:27:44;;;;;;;3.52;2.30;;;;;;;8.16;82.41;99348.45;1717255;82;21067;-72
2021/09/23 06:30:17;;;;;;;3.08;2.30;;;;;;;8.13;82.20;99348.26;1681365;82;21075;-74
2021/09/23 06:32:48;;;;;;;2.27;2.08;;;;;;;8.07;82.16;99348.13;1714236;82;21002;-72
2021/09/23 06:35:17;;;;;;;2.95;2.30;;;;;;;8.02;82.26;99347.66;1715831;82;21039;-77
2021/09/23 06:37:53;;;;;;;5.70;2.65;;;;;;;8.03;82.49;99349.30;1714227;82;21040;-69
2021/09/23 06:40:20;;;;;;;3.22;2.55;;;;;;;8.07;82.62;99348.91;1713615;82;21040;-71
2021/09/23 06:42:52;;;;;;;3.17;2.60;;;;;;;8.09;82.75;99350.80;1708635;82;21473;-77
2021/09/23 06:45:24;;;;;;;3.27;1.80;;;;;;;8.11;82.79;99355.98;1719623;82;21901;-72
2021/09/23 06:47:51;;;;;;;6.55;2.50;;;;;;;8.13;82.75;99354.56;1722422;82;21246;-70
2021/09/23 06:50:22;;;;;;;5.00;3.30;;;;;;;8.13;82.53;99351.00;1694754;82;21033;-77
2021/09/23 06:52:51;;;;;;;3.55;2.27;;;;;;;8.13;82.42;99351.83;1709438;82;20985;-79
2021/09/23 06:55:18;;;;;;;2.95;2.42;;;;;;;8.10;82.13;99352.41;1696603;83;21062;-70
2021/09/23 06:57:46;;;;;;;4.47;2.55;;;;;;;8.14;82.36;99351.23;1708300;82;21192;-79
2021/09/23 07:00:33;;;;;;;4.35;2.37;;;;;;;8.16;82.14;99351.20;1703646;82;21563;-75
2021/09/23 07:03:19;;;;;;;7.53;1.92;;;;;;;8.20;81.92;99345.91;1618516;87;21166;-77
2021/09/23 07:05:59;;;;;;;2.42;2.12;;;;;;;8.24;81.52;99348.28;1614815;87;21136;-76
2021/09/23 07:08:31;;;;;;;3.40;1.80;;;;;;;8.28;81.37;99352.59;1662397;82;21037;-75
2021/09/23 07:10:59;;;;;;;2.20;1.80;;;;;;;8.34;81.41;99353.30;1703988;82;21141;-75
2021/09/23 07:13:30;;;;;;;1.90;1.60;;;;;;;8.43;81.21;99349.27;1710578;81;21517;-70
2021/09/23 07:16:01;;;;;;;2.27;1.77;;;;;;;8.49;80.60;99350.21;1723346;81;21035;-72
2021/09/23 07:18:30;;;;;;;2.45;1.87;;;;;;;8.60;80.52;99345.30;1736012;81;21067;-77
2021/09/23 07:21:05;;;;;;;2.52;1.87;;;;;;;8.71;80.10;99346.44;1723873;81;21012;-79
2021/09/23 07:23:37;;;;;;;4.42;2.20;;;;;;;8.79;79.57;99344.86;1730877;81;21049;-74
2021/09/23 07:26:03;;;;;;;2.47;1.70;;;;;;;8.92;79.49;99345.94;1706724;81;21035;-76
2021/09/23 07:28:35;;;;;;;2.17;1.52;;;;;;;9.06;79.27;99341.75;1702180;83;21026;-73
2021/09/23 07:31:02;;;;;;;2.90;1.77;;;;;;;9.13;78.34;99345.66;1732319;81;21103;-70
2021/09/23 07:33:34;;;;;;;2.27;1.70;;;;;;;9.21;78.09;99343.28;1731761;81;21082;-80
2021/09/23 07:36:08;;;;;;;3.45;1.47;;;;;;;9.28;77.80;99341.46;1718630;81;21895;-72
2021/09/23 07:38:36;;;;;;;3.35;1.65;;;;;;;9.29;77.27;99344.45;1730619;81;21032;-81
2021/09/23 07:41:02;;;;;;;2.50;1.57;;;;;;;9.22;76.68;99347.09;1733048;81;21036;-73
2021/09/23 07:43:33;;;;;;;2.67;1.65;;;;;;;9.15;76.39;99346.72;1735097;81;21031;-71
2021/09/23 07:46:04;;;;;;;5.42;1.95;;;;;;;9.07;75.87;99345.55;1733222;81;21067;-77
2021/09/23 07:48:32;;;;;;;2.27;1.87;;;;;;;8.98;75.70;99342.75;1699782;81;21158;-75
2021/09/23 07:51:00;;;;;;;3.02;1.90;;;;;;;8.85;75.36;99346.38;1715776;82;20991;-76
2021/09/23 07:53:30;;;;;;;2.75;1.77;;;;;;;8.73;75.12;99345.56;1739308;81;21057;-75
2021/09/23 07:56:06;;;;;;;2.95;1.80;;;;;;;8.63;75.50;99343.30;1705090;83;20997;-77
2021/09/23 07:58:34;;;;;;;4.08;1.95;;;;;;;8.57;75.84;99346.48;1705112;81;21523;-71
2021/09/23 08:01:02;;;;;;;3.05;1.42;;;;;;;8.53;76.30;99346.26;1725001;81;21162;-78
2021/09/23 08:03:30;;;;;;;7.55;1.90;;;;;;;8.47;76.59;99345.58;1727058;81;21020;-78
2021/09/23 08:05:58;;;;;;;2.47;1.62;;;;;;;8.45;76.71;99340.95;1705108;81;21492;-77
2021/09/23 08:08:28;;;;;;;2.85;1.37;;;;;;;8.46;77.04;99342.56;1731185;81;21513;-76
2021/09/23 08:11:01;;;;;;;3.30;1.30;;;;;;;8.48;76.77;99337.59;1733148;81;21045;-78
2021/09/23 08:13:29;;;;;;;2.35;1.82;;;;;;;8.51;77.32;99331.47;1716444;81;21153;-73
2021/09/23 08:16:01;;;;;;;3.62;1.27;;;;;;;8.62;77.54;99333.45;1714867;82;21056;-73
2021/09/23 08:18:50;;;;;;;1.35;1.20;;;;;;;8.69;77.13;99336.31;1682101;82;21016;-76
2021/09/23 08:21:45;;;;;;;1.65;1.50;;;;;;;8.73;77.12;99335.40;1595766;89;21071;-78
2021/09/23 08:24:11;;;;;;;1.87;1.17;;;;;;;8.79;77.36;99329.75;1595206;89;21102;-71
2021/09/23 08:26:41;;;;;;;2.00;1.47;;;;;;;8.83;77.17;99330.77;1639503;82;21089;-75
2021/09/23 08:29:10;;;;;;;5.42;1.75;;;;;;;8.80;76.99;99333.59;1714076;82;21006;-77
2021/09/23 08:31:39;;;;;;;2.85;1.65;;;;;;;8.80;77.10;99326.72;1712642;82;21041;-74
2021/09/23 08:34:06;;;;;;;2.05;1.22;;;;;;;8.80;76.79;99327.27;1713287;82;21024;-78
2021/09/23 08:36:34;;;;;;;1.85;1.25;;;;;;;8.81;76.82;99331.63;1721151;82;21060;-79
2021/09/23 08:39:12;;;;;;;2.05;1.15;;;;;;;8.82;77.23;99335.44;1679435;85;21093;-79
2021/09/23 08:41:39;;;;;;;3.83;1.93;;;;;;;8.87;77.31;99334.52;1679462;85;20997;-71
2021/09/23 08:44:10;;;;;;;2.60;1.80;;;;;;;8.93;77.57;99328.31;1717373;82;21048;-76
2021/09/23 08:46:38;;;;;;;5.70;4.00;;;;;;;9.02;77.76;99325.08;1725895;82;21045;-80
2021/09/23 08:49:08;;;;;;;6.10;3.08;;;;;;;9.16;77.71;99327.72;1734758;82;21568;-75
2021/09/23 08:51:37;;;;;;;3.77;2.52;;;;;;;9.24;77.37;99327.53;1726306;82;21295;-77
2021/09/23 08:54:08;;;;;;;4.03;2.40;;;;;;;9.22;76.83;99326.47;1722606;82;21064;-80
2021/09/23 08:56:37;;;;;;;6.67;3.17;;;;;;;9.19;76.60;99328.48;1688880;82;21061;-77
2021/09/23 08:59:14;;;;;;;6.83;3.17;;;;;;;9.14;76.57;99328.62;1644356;86;21025;-74
2021/09/23 09:01:50;;;;;;;6.53;2.95;;;;;;;9.07;76.45;99329.06;1668365;86;21112;-76
2021/09/23 09:04:18;;;;;;;5.37;3.77;;;;;;;9.03;76.55;99334.11;1682179;82;23335;-78
2021/09/23 09:06:55;;;;;;;5.75;3.52;;;;;;;8.99;76.54;99329.83;1685270;82;21536;-77
2021/09/23 09:09:29;;;;;;;3.45;2.85;;;;;;;8.92;76.55;99331.65;1638903;85;21115;-73
2021/09/23 09:12:00;;;;;;;6.83;3.47;;;;;;;8.87;76.58;99330.41;1675490;83;21069;-79
2021/09/23 09:14:30;;;;;;;8.25;3.02;;;;;;;8.82;76.65;99333.27;1730486;81;21515;-73
2021/09/23 09:17:03;;;;;;;4.50;3.00;;;;;;;8.79;77.05;99329.75;1731446;81;21523;-78
2021/09/23 09:19:47;;;;;;;;;;;;;;;8.79;77.25;99330.58;1691810;83;21036;-81
2021/09/23 09:22:20;;;;;;;5.20;3.17;;;;;;;8.80;77.42;99325.34;1703211;81;20176;-80
2021/09/23 09:24:59;;;;;;;3.85;2.80;;;;;;;8.82;77.57;99322.28;1716545;81;21038;-74
2021/09/23 09:27:37;;;;;;;5.95;3.27;;;;;;;8.81;77.51;99330.26;1710613;81;21507;-72
2021/09/23 09:30:22;;;;;;;5.00;2.08;;;;;;;8.81;77.65;99326.14;1715509;81;21486;-71
2021/09/23 09:33:01;;;;;;;5.78;1.80;;;;;;;8.84;77.36;99326.88;1709596;83;21004;-73
2021/09/23 09:35:32;;;;;;;4.37;2.50;;;;;;;8.87;77.46;99322.95;1713511;81;21048;-72
2021/09/23 09:38:05;;;;;;;2.33;2.08;;;;;;;8.91;77.34;99326.44;1714466;81;21006;-76
2021/09/23 09:40:38;;;;;;;4.22;2.12;;;;;;;8.94;77.16;99325.84;1693428;83;21016;-71
2021/09/23 09:43:08;;;;;;;2.40;1.98;;;;;;;8.96;76.85;99324.38;1713831;83;21620;-73
2021/09/23 09:45:36;;;;;;;2.60;2.30;;;;;;;8.96;76.61;99324.38;1693004;83;21091;-70
2021/09/23 09:48:07;;;;;;;2.85;2.47;;;;;;;8.96;76.32;99323.01;1721176;81;21020;-71
2021/09/23 09:50:37;;;;;;;3.55;2.33;;;;;;;8.96;76.98;99323.01;1735158;81;20997;-78
2021/09/23 09:53:10;;;;;;;3.47;1.92;;;;;;;8.96;77.33;99326.31;1719512;81;21517;-76
2021/09/23 09:55:45;;;;;;;3.25;2.37;;;;;;;8.98;77.08;99322.69;1717821;81;21081;-69
2021/09/23 09:58:20;;;;;;;3.60;2.58;;;;;;;8.96;76.91;99323.56;1685880;83;21009;-73
2021/09/23 10:00:46;;;;;;;6.67;2.02;;;;;;;8.94;77.15;99323.09;1697137;82;21035;-74
2021/09/23 10:03:13;;;;;;;5.10;2.27;;;;;;;8.92;76.90;99328.08;1712266;83;21051;-75
2021/09/23 10:05:41;;;;;;;8.00;2.22;;;;;;;8.87;76.56;99332.56;1720776;81;21105;-72
2021/09/23 10:08:13;;;;;;;6.03;2.12;;;;;;;8.83;76.66;99334.88;1709302;83;21144;-73
2021/09/23 10:10:42;;;;;;;4.20;2.50;;;;;;;8.84;76.88;99330.45;1719850;81;21114;-71
2021/09/23 10:13:13;;;;;;;2.67;2.12;;;;;;;8.85;76.62;99329.31;1706174;81;21032;-77
2021/09/23 10:15:44;;;;;;;3.05;2.20;;;;;;;8.84;76.68;99327.70;1695060;82;21314;-80
2021/09/23 10:18:19;;;;;;;2.20;1.85;;;;;;;8.84;76.15;99328.25;1697953;82;21020;-74
2021/09/23 10:20:49;;;;;;;3.00;2.08;;;;;;;8.84;76.55;99322.76;1718393;82;21577;-78
2021/09/23 10:23:18;;;;;;;3.40;2.17;;;;;;;8.90;77.02;99318.78;1688550;83;21064;-71
2021/09/23 10:25:48;;;;;;;3.62;2.15;;;;;;;9.05;77.10;99323.63;1713915;82;21510;-71
2021/09/23 10:28:24;;;;;;;6.97;2.50;;;;;;;9.17;76.87;99325.23;1689765;82;21125;-70
2021/09/23 10:30:51;;;;;;;4.95;2.72;;;;;;;9.23;76.74;99332.20;1714461;82;21001;-71
2021/09/23 10:33:20;;;;;;;3.17;2.30;;;;;;;9.31;76.95;99325.70;1707532;82;21540;-79
2021/09/23 10:35:48;;;;;;;2.83;2.42;;;;;;;9.38;76.40;99322.73;1713025;81;21051;-73
2021/09/23 10:53:17;;;;;;;64.72;14.00;;;;;;;9.47;76.07;99323.33;1628456;86;21103;-78
2021/09/23 11:07:38;;;;;;;4.08;2.50;;;;;;;9.09;77.12;99322.67;1699304;83;21095;-75
2021/09/23 11:24:46;;;;;;;4.95;2.52;;;;;;;8.84;78.04;99328.25;1526634;93;21191;-78
2021/09/23 11:44:26;;;;;;;4.90;2.42;;;;;;;9.02;77.78;99334.69;1545193;91;21139;-75
2021/09/23 11:46:57;;;;;;;6.15;3.33;;;;;;;9.07;77.55;99327.69;1576786;86;21051;-80
2021/09/23 11:49:27;;;;;;;2.08;1.40;;;;;;;9.10;77.24;99327.61;1653626;86;21026;-76
2021/09/23 11:51:58;;;;;;;2.77;2.08;;;;;;;9.11;77.37;99316.30;1641820;85;21096;-72
2021/09/23 11:54:24;;;;;;;3.05;1.92;;;;;;;9.13;77.07;99323.67;1625011;86;21566;-73
2021/09/23 11:56:56;;;;;;;4.42;2.30;;;;;;;9.13;76.94;99322.86;1676540;85;21021;-76
2021/09/23 11:59:26;;;;;;;11.25;1.95;;;;;;;9.13;76.83;99317.36;1676563;85;21513;-72
2021/09/23 12:02:05;;;;;;;6.67;2.42;;;;;;;9.16;76.61;99307.09;1676683;85;21067;-74
2021/09/23 12:04:34;;;;;;;4.60;2.72;;;;;;;9.19;76.25;99311.98;1676551;85;21048;-77
2021/09/23 12:07:06;;;;;;;4.60;2.22;;;;;;;9.20;75.78;99320.47;1652411;85;21137;-79
2021/09/23 12:09:37;;;;;;;7.15;2.22;;;;;;;9.16;75.05;99319.47;1653846;83;20992;-73
2021/09/23 12:12:10;;;;;;;1.72;1.37;;;;;;;9.12;75.18;99321.24;1675887;83;21016;-78
2021/09/23 12:14:52;;;;;;;7.22;2.08;;;;;;;9.09;75.39;99321.30;1683558;83;20986;-74
2021/09/23 12:17:21;;;;;;;3.15;1.55;;;;;;;9.08;75.38;99316.94;1665419;84;21028;-75
2021/09/23 12:19:58;;;;;;;3.10;1.77;;;;;;;9.08;75.36;99314.73;1659491;85;21544;-80
2021/09/23 12:22:35;;;;;;;3.12;1.57;;;;;;;9.05;75.00;99314.00;1665825;84;21558;-71
2021/09/23 12:25:13;;;;;;;;;;;;;;;9.00;74.90;99315.77;1684302;84;21004;-75
2021/09/23 12:27:39;;;;;;;3.10;2.10;;;;;;;8.96;75.08;99317.52;1662637;86;20378;-71
2021/09/23 12:30:09;;;;;;;4.33;2.00;;;;;;;8.94;75.38;99313.47;1662689;85;21211;-79
2021/09/23 12:32:43;;;;;;;2.70;1.70;;;;;;;8.94;75.72;99306.02;1627586;87;21114;-78
2021/09/23 12:35:20;;;;;;;2.37;1.62;;;;;;;8.94;75.93;99293.65;1671626;84;21110;-72
2021/09/23 12:37:52;;;;;;;2.27;1.65;;;;;;;8.94;76.08;99297.77;1662762;86;21020;-78
2021/09/23 12:40:26;;;;;;;2.50;1.80;;;;;;;8.96;76.55;99295.53;1652430;86;21063;-72
2021/09/23 12:42:52;;;;;;;2.10;1.50;;;;;;;9.00;76.80;99295.16;1631226;87;21047;-72
2021/09/23 12:45:22;;;;;;;3.87;1.62;;;;;;;9.07;76.88;99298.83;1629649;87;22645;-78
2021/09/23 12:47:51;;;;;;;3.02;1.75;;;;;;;9.10;76.65;99294.07;1623069;86;21051;-80
2021/09/23 12:50:24;;;;;;;4.05;2.25;;;;;;;9.11;76.58;99296.27;1605249;87;21054;-78
2021/09/23 12:52:54;;;;;;;7.75;2.10;;;;;;;9.11;76.72;99292.14;1674954;84;21504;-72
2021/09/23 12:55:26;;;;;;;3.77;2.05;;;;;;;9.10;76.67;99291.87;1673816;84;21064;-77
2021/09/23 12:58:02;;;;;;;4.37;2.00;;;;;;;9.08;76.67;99285.33;1680751;84;21102;-79
2021/09/23 13:00:37;;;;;;;3.40;2.05;;;;;;;9.08;76.89;99284.50;1673464;84;20964;-81